sensor_id;sensor_type;location;lat;lon;timestamp;pressure;altitude;pressure_sealevel;temperature;humidity
30338;BME280;17143;51.888;5.408;2023-03-19T00:03:57;100892.47;;;12.32;100.00
30338;BME280;17143;51.888;5.408;2023-03-19T00:18:59;100896.81;;;12.32;100.00
30338;BME280;17143;51.888;5.408;2023-03-19T00:34:02;100902.63;;;12.26;100.00
30338;BME280;17143;51.888;5.408;2023-03-19T00:49:04;100910.84;;;12.16;100.00
30338;BME280;17143;51.888;5.408;2023-03-19T01:04:06;100903.22;;;12.03;100.00
30338;BME280;17143;51.888;5.408;2023-03-19T01:19:08;100901.47;;;12.02;100.00
30338;BME280;17143;51.888;5.408;2023-03-19T01:34:10;100907.34;;;11.98;100.00
30338;BME280;17143;51.888;5.408;2023-03-19T01:49:25;100917.63;;;11.95;100.00
30338;BME280;17143;51.888;5.408;2023-03-19T02:04:43;100910.63;;;11.94;100.00
30338;BME280;17143;51.888;5.408;2023-03-19T02:19:50;100916.19;;;11.84;100.00
30338;BME280;17143;51.888;5.408;2023-03-19T02:34:55;100911.44;;;11.75;100.00
30338;BME280;17143;51.888;5.408;2023-03-19T02:49:57;100923.00;;;11.80;100.00
30338;BME280;17143;51.888;5.408;2023-03-19T03:05:00;100924.38;;;11.74;100.00
30338;BME280;17143;51.888;5.408;2023-03-19T03:20:03;100920.47;;;11.66;100.00
30338;BME280;17143;51.888;5.408;2023-03-19T03:35:06;100919.69;;;11.50;100.00
30338;BME280;17143;51.888;5.408;2023-03-19T03:50:09;100933.53;;;11.49;100.00
30338;BME280;17143;51.888;5.408;2023-03-19T04:05:12;100933.25;;;11.43;100.00
30338;BME280;17143;51.888;5.408;2023-03-19T04:20:15;100934.56;;;11.35;100.00
30338;BME280;17143;51.888;5.408;2023-03-19T04:35:17;100945.41;;;11.27;100.00
30338;BME280;17143;51.888;5.408;2023-03-19T04:50:19;100944.72;;;11.15;100.00
30338;BME280;17143;51.888;5.408;2023-03-19T05:05:21;100958.19;;;11.06;100.00
30338;BME280;17143;51.888;5.408;2023-03-19T05:20:24;100969.25;;;11.02;100.00
30338;BME280;17143;51.888;5.408;2023-03-19T05:35:33;100990.88;;;10.69;100.00
30338;BME280;17143;51.888;5.408;2023-03-19T05:50:36;101001.06;;;10.50;100.00
30338;BME280;17143;51.888;5.408;2023-03-19T06:05:51;101020.94;;;10.48;100.00
30338;BME280;17143;51.888;5.408;2023-03-19T06:21:05;101025.66;;;10.55;100.00
30338;BME280;17143;51.888;5.408;2023-03-19T06:36:08;101045.72;;;10.86;100.00
30338;BME280;17143;51.888;5.408;2023-03-19T06:51:10;101056.28;;;13.60;100.00
30338;BME280;17143;51.888;5.408;2023-03-19T07:06:12;101069.78;;;16.27;100.00
30338;BME280;17143;51.888;5.408;2023-03-19T07:21:14;101085.34;;;17.25;95.61
30338;BME280;17143;51.888;5.408;2023-03-19T07:36:16;101110.19;;;15.82;95.35
30338;BME280;17143;51.888;5.408;2023-03-19T07:51:18;101123.16;;;13.53;100.00
30338;BME280;17143;51.888;5.408;2023-03-19T08:06:20;101137.59;;;12.74;100.00
30338;BME280;17143;51.888;5.408;2023-03-19T08:21:22;101154.44;;;12.30;100.00
30338;BME280;17143;51.888;5.408;2023-03-19T08:36:24;101169.06;;;12.26;100.00
30338;BME280;17143;51.888;5.408;2023-03-19T08:51:27;101181.59;;;12.65;100.00
30338;BME280;17143;51.888;5.408;2023-03-19T09:06:29;101185.59;;;12.59;100.00
30338;BME280;17143;51.888;5.408;2023-03-19T09:21:31;101212.50;;;12.24;100.00
30338;BME280;17143;51.888;5.408;2023-03-19T09:36:33;101222.13;;;11.93;100.00
30338;BME280;17143;51.888;5.408;2023-03-19T09:51:47;101243.19;;;12.12;100.00
30338;BME280;17143;51.888;5.408;2023-03-19T10:06:52;101251.38;;;12.84;100.00
30338;BME280;17143;51.888;5.408;2023-03-19T10:22:01;101255.31;;;13.26;100.00
30338;BME280;17143;51.888;5.408;2023-03-19T10:37:13;101260.75;;;13.48;100.00
30338;BME280;17143;51.888;5.408;2023-03-19T10:52:20;101284.97;;;13.26;100.00
30338;BME280;17143;51.888;5.408;2023-03-19T11:07:24;101292.75;;;13.25;100.00
30338;BME280;17143;51.888;5.408;2023-03-19T11:22:31;101307.63;;;13.26;100.00
30338;BME280;17143;51.888;5.408;2023-03-19T11:37:44;101310.00;;;13.21;100.00
30338;BME280;17143;51.888;5.408;2023-03-19T11:53:02;101311.84;;;14.30;100.00
30338;BME280;17143;51.888;5.408;2023-03-19T12:08:18;101314.25;;;14.62;100.00
30338;BME280;17143;51.888;5.408;2023-03-19T12:23:33;101318.44;;;14.97;100.00
30338;BME280;17143;51.888;5.408;2023-03-19T12:38:38;101296.19;;;15.48;98.90
30338;BME280;17143;51.888;5.408;2023-03-19T12:53:45;101310.06;;;16.09;97.66
30338;BME280;17143;51.888;5.408;2023-03-19T13:08:51;101327.03;;;15.74;92.41
30338;BME280;17143;51.888;5.408;2023-03-19T13:24:03;101330.63;;;15.76;92.88
30338;BME280;17143;51.888;5.408;2023-03-19T13:39:13;101327.81;;;16.14;91.88
30338;BME280;17143;51.888;5.408;2023-03-19T13:54:17;101343.03;;;16.01;90.77
30338;BME280;17143;51.888;5.408;2023-03-19T14:09:36;101340.59;;;16.27;88.79
30338;BME280;17143;51.888;5.408;2023-03-19T14:24:39;101323.84;;;16.70;86.21
30338;BME280;17143;51.888;5.408;2023-03-19T14:39:42;101352.78;;;16.70;84.83
30338;BME280;17143;51.888;5.408;2023-03-19T14:54:48;101356.63;;;16.56;84.45
30338;BME280;17143;51.888;5.408;2023-03-19T15:09:53;101347.91;;;16.57;85.10
30338;BME280;17143;51.888;5.408;2023-03-19T15:25:04;101349.13;;;16.22;81.89
30338;BME280;17143;51.888;5.408;2023-03-19T15:40:09;101353.56;;;15.80;83.29
30338;BME280;17143;51.888;5.408;2023-03-19T15:55:13;101379.19;;;15.65;86.73
30338;BME280;17143;51.888;5.408;2023-03-19T16:10:35;101407.69;;;15.37;90.27
30338;BME280;17143;51.888;5.408;2023-03-19T16:25:38;101419.44;;;15.25;89.23
30338;BME280;17143;51.888;5.408;2023-03-19T16:40:42;101435.53;;;14.76;91.35
30338;BME280;17143;51.888;5.408;2023-03-19T16:55:45;101468.81;;;14.24;94.03
30338;BME280;17143;51.888;5.408;2023-03-19T17:10:49;101477.34;;;13.68;95.84
30338;BME280;17143;51.888;5.408;2023-03-19T17:25:52;101493.59;;;13.29;97.52
30338;BME280;17143;51.888;5.408;2023-03-19T17:40:55;101518.53;;;12.92;98.70
30338;BME280;17143;51.888;5.408;2023-03-19T17:55:57;101545.72;;;12.64;99.92
30338;BME280;17143;51.888;5.408;2023-03-19T18:10:59;101571.34;;;12.26;100.00
30338;BME280;17143;51.888;5.408;2023-03-19T18:26:01;101587.72;;;11.80;100.00
30338;BME280;17143;51.888;5.408;2023-03-19T18:41:03;101613.50;;;11.47;100.00
30338;BME280;17143;51.888;5.408;2023-03-19T18:56:15;101635.03;;;11.30;100.00
30338;BME280;17143;51.888;5.408;2023-03-19T19:11:19;101661.59;;;11.38;100.00
30338;BME280;17143;51.888;5.408;2023-03-19T19:26:24;101666.31;;;11.43;100.00
30338;BME280;17143;51.888;5.408;2023-03-19T19:41:27;101681.78;;;11.27;100.00
30338;BME280;17143;51.888;5.408;2023-03-19T19:56:29;101677.75;;;11.32;100.00
30338;BME280;17143;51.888;5.408;2023-03-19T20:11:31;101689.38;;;11.37;100.00
30338;BME280;17143;51.888;5.408;2023-03-19T20:26:33;101705.47;;;11.30;100.00
30338;BME280;17143;51.888;5.408;2023-03-19T20:41:35;101729.31;;;11.10;100.00
30338;BME280;17143;51.888;5.408;2023-03-19T20:56:37;101723.09;;;10.95;100.00
30338;BME280;17143;51.888;5.408;2023-03-19T21:11:40;101739.50;;;10.81;100.00
30338;BME280;17143;51.888;5.408;2023-03-19T21:26:42;101749.13;;;10.69;100.00
30338;BME280;17143;51.888;5.408;2023-03-19T21:41:46;101746.69;;;10.59;100.00
30338;BME280;17143;51.888;5.408;2023-03-19T21:56:48;101734.66;;;10.61;100.00
30338;BME280;17143;51.888;5.408;2023-03-19T22:11:51;101748.34;;;10.45;100.00
30338;BME280;17143;51.888;5.408;2023-03-19T22:26:55;101743.84;;;10.43;100.00
30338;BME280;17143;51.888;5.408;2023-03-19T22:41:58;101768.50;;;10.48;100.00
30338;BME280;17143;51.888;5.408;2023-03-19T22:57:00;101781.47;;;10.34;100.00
30338;BME280;17143;51.888;5.408;2023-03-19T23:12:03;101784.63;;;10.30;100.00
30338;BME280;17143;51.888;5.408;2023-03-19T23:27:05;101810.94;;;10.22;100.00
30338;BME280;17143;51.888;5.408;2023-03-19T23:42:10;101800.03;;;10.27;100.00
30338;BME280;17143;51.888;5.408;2023-03-19T23:57:18;101814.34;;;10.21;100.00
